Time;durP1;ratioP1;P1;durP2;ratioP2;P2;SDS_P1;SDS_P2;PMS_P1;PMS_P2;Temp;Humidity;BMP_temperature;BMP_pressure;BME280_temperature;BME280_humidity;BME280_pressure;Samples;Min_cycle;Max_cycle;Signal;HPM_P1;HPM_P2
2021/10/09 00:00:19;;;;;;;21.73;15.13;;;;;;;10.27;100.00;101336.69;5056754;28;20076;-69
2021/10/09 00:02:45;;;;;;;21.63;15.55;;;;;;;10.27;100.00;101342.00;5052707;28;20041;-68
2021/10/09 00:05:12;;;;;;;23.05;16.25;;;;;;;10.19;100.00;101343.19;5031162;28;20053;-71
2021/10/09 00:07:39;;;;;;;23.23;16.52;;;;;;;10.19;100.00;101335.19;5055116;28;20041;-69
2021/10/09 00:10:07;;;;;;;24.73;15.85;;;;;;;10.13;100.00;101339.91;5056408;28;20349;-68
2021/10/09 00:12:35;;;;;;;22.33;16.15;;;;;;;10.13;100.00;101338.09;5057038;28;20053;-70
2021/10/09 00:15:03;;;;;;;22.00;15.95;;;;;;;10.11;100.00;101336.44;5056266;28;20049;-70
2021/10/09 00:17:30;;;;;;;26.17;16.25;;;;;;;10.08;100.00;101342.75;5056122;28;20087;-69
2021/10/09 00:19:57;;;;;;;22.17;15.63;;;;;;;10.13;100.00;101345.25;5056392;28;20077;-71
2021/10/09 00:22:24;;;;;;;22.33;16.73;;;;;;;10.12;100.00;101338.16;5056143;28;20095;-70
2021/10/09 00:24:51;;;;;;;24.45;17.38;;;;;;;10.11;100.00;101336.44;5038436;28;20376;-68
2021/10/09 00:27:18;;;;;;;22.20;15.88;;;;;;;10.09;100.00;101336.50;5054929;28;20098;-70
2021/10/09 00:29:45;;;;;;;23.45;16.45;;;;;;;10.04;100.00;101336.66;5055975;28;20053;-68
2021/10/09 00:32:12;;;;;;;26.17;16.38;;;;;;;10.07;100.00;101340.16;5054765;28;20071;-67
2021/10/09 00:34:39;;;;;;;21.52;16.90;;;;;;;10.07;100.00;101340.16;5054680;28;20497;-70
2021/10/09 00:37:06;;;;;;;23.50;16.70;;;;;;;10.04;100.00;101341.16;5055381;28;20457;-69
2021/10/09 00:39:33;;;;;;;23.73;16.27;;;;;;;10.07;100.00;101335.69;5055952;28;20159;-71
2021/10/09 00:42:00;;;;;;;24.88;17.70;;;;;;;10.05;100.00;101332.22;5055767;28;20116;-69
2021/10/09 00:44:27;;;;;;;22.13;16.55;;;;;;;10.03;100.00;101328.75;5054638;28;20118;-68
2021/10/09 00:47:02;;;;;;;21.33;15.95;;;;;;;9.91;100.00;101322.97;5054416;28;20048;-69
2021/10/09 00:49:31;;;;;;;21.48;16.23;;;;;;;9.91;100.00;101327.41;5056118;28;20049;-66
2021/10/09 00:52:01;;;;;;;26.70;17.55;;;;;;;9.94;100.00;101334.44;5054108;28;20350;-71
2021/10/09 00:54:30;;;;;;;24.17;17.08;;;;;;;9.90;100.00;101328.34;5054373;28;20426;-72
2021/10/09 00:56:58;;;;;;;28.70;17.13;;;;;;;9.90;100.00;101329.22;5055334;28;20438;-71
2021/10/09 00:59:27;;;;;;;27.58;18.10;;;;;;;9.86;100.00;101327.59;5054231;28;20052;-71
2021/10/09 01:02:00;;;;;;;26.52;17.55;;;;;;;9.86;100.00;101324.09;5032684;28;20049;-66
2021/10/09 01:04:29;;;;;;;24.55;18.10;;;;;;;9.87;100.00;101333.81;5046556;28;20445;-67
2021/10/09 01:06:56;;;;;;;24.80;18.52;;;;;;;9.80;100.00;101333.19;5054318;28;20052;-71
2021/10/09 01:09:23;;;;;;;26.70;17.73;;;;;;;9.75;100.00;101336.03;5037639;28;20057;-69
2021/10/09 01:11:50;;;;;;;26.92;18.73;;;;;;;9.75;100.00;101330.69;5043126;28;20045;-70
2021/10/09 01:14:19;;;;;;;28.58;18.88;;;;;;;9.75;100.00;101336.03;5054202;28;20414;-71
2021/10/09 01:16:46;;;;;;;29.30;18.35;;;;;;;9.77;100.00;101338.63;5037702;28;20064;-71
2021/10/09 01:19:14;;;;;;;31.20;19.38;;;;;;;9.72;100.00;101330.81;5055108;28;20045;-69
2021/10/09 01:21:48;;;;;;;28.70;18.88;;;;;;;9.71;100.00;101330.88;5054290;28;20051;-67
2021/10/09 01:24:16;;;;;;;28.97;19.23;;;;;;;9.65;100.00;101324.84;5048670;28;20033;-72
2021/10/09 01:26:47;;;;;;;29.38;18.92;;;;;;;9.68;100.00;101329.19;5034216;28;20509;-69
2021/10/09 01:29:18;;;;;;;25.90;18.92;;;;;;;9.58;100.00;101318.00;5018270;28;20123;-68
2021/10/09 01:31:49;;;;;;;31.73;19.75;;;;;;;9.56;100.00;101322.53;5033846;28;20137;-67
2021/10/09 01:34:26;;;;;;;28.75;19.63;;;;;;;9.50;100.00;101314.78;5034229;28;20383;-70
2021/10/09 01:36:59;;;;;;;28.50;18.67;;;;;;;9.54;100.00;101324.41;5035181;28;20576;-70
2021/10/09 01:39:30;;;;;;;27.77;19.27;;;;;;;9.40;100.00;101308.94;5032158;28;20439;-70
2021/10/09 01:41:56;;;;;;;34.47;20.23;;;;;;;9.49;100.00;101326.38;5037173;28;20367;-66
2021/10/09 01:44:27;;;;;;;27.20;19.77;;;;;;;9.47;100.00;101321.09;5034057;28;20064;-69
2021/10/09 01:46:56;;;;;;;28.33;20.77;;;;;;;9.40;100.00;101318.69;5017874;28;20053;-68
2021/10/09 01:49:25;;;;;;;28.58;19.83;;;;;;;9.38;100.00;101319.63;5032899;28;20103;-68
2021/10/09 01:51:54;;;;;;;28.17;20.42;;;;;;;9.36;100.00;101313.50;5017507;28;20046;-70
2021/10/09 01:54:21;;;;;;;27.08;20.52;;;;;;;9.33;100.00;101318.09;5035035;28;20112;-70
2021/10/09 01:56:49;;;;;;;30.50;20.80;;;;;;;9.30;100.00;101316.41;5034210;28;20048;-73
2021/10/09 01:59:16;;;;;;;33.72;21.08;;;;;;;9.28;100.00;101315.59;5033627;28;20123;-69
2021/10/09 02:01:50;;;;;;;28.40;20.58;;;;;;;9.22;100.00;101311.34;5033713;28;20346;-72
2021/10/09 02:04:17;;;;;;;26.95;20.08;;;;;;;9.28;100.00;101310.25;5033629;28;20057;-70
2021/10/09 02:06:47;;;;;;;35.90;21.70;;;;;;;9.28;100.00;101310.25;5033644;28;20076;-69
2021/10/09 02:09:16;;;;;;;27.67;21.15;;;;;;;9.26;100.00;101308.56;5033992;28;20125;-68
2021/10/09 02:11:48;;;;;;;34.22;21.08;;;;;;;9.30;100.00;101308.41;5033747;28;20045;-66
2021/10/09 02:25:28;;;;;;;32.10;22.65;;;;;;;9.18;100.00;101287.53;5039335;28;20045;-69
2021/10/09 02:27:57;;;;;;;33.85;21.50;;;;;;;9.13;100.00;101286.84;5053408;28;20075;-72
2021/10/09 02:30:24;;;;;;;30.80;22.83;;;;;;;9.15;100.00;101293.84;5053246;28;20072;-70
2021/10/09 02:32:52;;;;;;;30.60;22.08;;;;;;;9.09;100.00;101284.28;5053069;28;20084;-67
2021/10/09 02:35:19;;;;;;;34.72;24.02;;;;;;;9.08;100.00;101287.00;5053197;28;20055;-68
2021/10/09 02:37:45;;;;;;;38.22;23.50;;;;;;;9.01;100.00;101288.16;5053581;28;20346;-73
2021/10/09 02:40:13;;;;;;;32.72;24.27;;;;;;;8.99;100.00;101288.22;5040405;28;20050;-67
2021/10/09 02:42:40;;;;;;;37.63;26.05;;;;;;;8.94;100.00;101279.53;5034452;28;20076;-70
2021/10/09 02:45:08;;;;;;;39.90;25.60;;;;;;;8.98;100.00;101290.94;5021120;28;20443;-67
2021/10/09 02:47:35;;;;;;;35.30;23.55;;;;;;;8.95;100.00;101281.28;5043548;28;20444;-68
2021/10/09 02:50:04;;;;;;;32.53;24.13;;;;;;;8.93;100.00;101278.66;5053031;28;20345;-70
2021/10/09 02:52:30;;;;;;;40.55;24.27;;;;;;;8.93;100.00;101283.97;5052490;28;20064;-72
2021/10/09 02:54:57;;;;;;;38.67;25.00;;;;;;;8.93;100.00;101278.66;5053158;28;20111;-69
2021/10/09 02:57:24;;;;;;;35.83;24.25;;;;;;;8.90;100.00;101291.22;5052973;28;20078;-68
2021/10/09 02:59:51;;;;;;;38.55;25.05;;;;;;;8.90;100.00;101283.22;5053469;28;20064;-66
2021/10/09 03:02:18;;;;;;;36.85;25.40;;;;;;;8.83;100.00;101278.13;5056466;28;20048;-68
2021/10/09 03:04:46;;;;;;;36.63;25.17;;;;;;;8.75;100.00;101285.50;5040058;28;20045;-71
2021/10/09 03:07:13;;;;;;;36.88;24.85;;;;;;;8.76;100.00;101283.72;5056712;28;20052;-71
2021/10/09 03:09:39;;;;;;;36.42;23.73;;;;;;;8.74;100.00;101280.25;5039823;28;20139;-72
2021/10/09 03:12:07;;;;;;;39.08;24.55;;;;;;;8.75;100.00;101289.97;5056290;28;20056;-68
2021/10/09 03:14:35;;;;;;;40.38;26.02;;;;;;;8.74;100.00;101289.09;5056200;28;20509;-68
2021/10/09 03:17:02;;;;;;;38.28;25.38;;;;;;;8.73;100.00;101290.03;5056408;28;20053;-69
2021/10/09 03:19:29;;;;;;;38.30;25.25;;;;;;;8.70;100.00;101287.47;5056080;28;20079;-70
2021/10/09 03:21:56;;;;;;;37.33;25.95;;;;;;;8.67;100.00;101285.78;5057411;28;20045;-68
2021/10/09 03:24:23;;;;;;;42.83;27.02;;;;;;;8.62;100.00;101290.41;5033554;28;20049;-67
2021/10/09 03:26:50;;;;;;;37.67;26.17;;;;;;;8.54;100.00;101277.34;5019853;28;20076;-67
2021/10/09 03:29:22;;;;;;;39.47;27.30;;;;;;;8.60;100.00;101286.91;5020383;28;20095;-70
2021/10/09 03:31:49;;;;;;;42.97;28.20;;;;;;;8.58;100.00;101291.44;5036071;28;20045;-70
2021/10/09 03:34:16;;;;;;;40.17;27.23;;;;;;;8.58;100.00;101287.88;5037487;28;20411;-71
2021/10/09 03:36:46;;;;;;;36.63;25.23;;;;;;;8.50;100.00;101288.97;5036068;28;20053;-67
2021/10/09 03:39:16;;;;;;;42.42;27.13;;;;;;;8.52;100.00;101291.63;5036135;28;20076;-69
2021/10/09 03:41:49;;;;;;;41.55;26.92;;;;;;;8.49;100.00;101284.59;5019574;28;20041;-69
2021/10/09 03:44:16;;;;;;;40.22;27.13;;;;;;;8.52;100.00;101289.84;5020111;28;20431;-68
2021/10/09 03:46:57;;;;;;;43.03;28.13;;;;;;;8.49;100.00;101284.59;5003387;28;20344;-65
2021/10/09 03:49:38;;;;;;;43.75;28.15;;;;;;;8.46;100.00;101284.72;5035874;28;20049;-69
2021/10/09 03:54:51;;;;;;;41.00;28.42;;;;;;;8.45;100.00;101295.41;5055567;28;20052;-73
2021/10/09 03:57:19;;;;;;;44.60;28.17;;;;;;;8.39;100.00;101289.34;5055936;28;20048;-68
2021/10/09 03:59:47;;;;;;;46.40;28.10;;;;;;;8.38;100.00;101292.06;5055816;28;20067;-66
2021/10/09 04:02:14;;;;;;;40.17;27.83;;;;;;;8.38;100.00;101286.72;5055533;28;20045;-67
2021/10/09 04:04:41;;;;;;;42.13;29.05;;;;;;;8.37;100.00;101296.53;5022524;28;20053;-68
2021/10/09 04:07:07;;;;;;;44.40;28.90;;;;;;;8.39;100.00;101293.81;5055371;28;20049;-69
2021/10/09 04:09:34;;;;;;;44.95;27.92;;;;;;;8.36;100.00;101299.22;5055283;28;20044;-69
2021/10/09 04:12:01;;;;;;;44.58;29.35;;;;;;;8.31;100.00;101293.19;5054471;28;20045;-71
2021/10/09 04:14:29;;;;;;;52.03;30.17;;;;;;;8.34;100.00;101301.94;5056394;28;20445;-67
2021/10/09 04:16:56;;;;;;;48.00;30.70;;;;;;;8.21;100.00;101285.53;5055399;28;20056;-68
2021/10/09 04:19:22;;;;;;;42.65;28.42;;;;;;;8.29;100.00;101299.44;5055682;28;20052;-68
2021/10/09 04:21:49;;;;;;;47.38;29.80;;;;;;;8.25;100.00;101303.13;5056053;28;20480;-69
2021/10/09 04:24:20;;;;;;;46.45;29.30;;;;;;;8.17;100.00;101289.19;5049940;28;20045;-71
2021/10/09 04:26:50;;;;;;;;;;;;;;;8.18;100.00;101298.94;5005866;28;20403;-70
2021/10/09 04:29:17;;;;;;;46.50;29.80;;;;;;;8.22;100.00;101300.56;5035755;28;20186;-68
2021/10/09 04:31:44;;;;;;;45.95;29.75;;;;;;;8.19;100.00;101295.34;5036531;28;20045;-68
2021/10/09 04:34:13;;;;;;;47.15;31.55;;;;;;;8.18;100.00;101290.06;5035281;28;20046;-71
2021/10/09 04:36:42;;;;;;;49.30;29.60;;;;;;;8.21;100.00;101290.84;5034971;28;20103;-69
2021/10/09 04:39:11;;;;;;;41.80;29.15;;;;;;;8.21;100.00;101300.59;5035137;28;20049;-70
2021/10/09 04:41:37;;;;;;;44.42;30.27;;;;;;;8.14;100.00;101294.63;5018525;28;20144;-69
2021/10/09 04:44:06;;;;;;;42.80;30.42;;;;;;;8.13;100.00;101295.53;5018430;28;20447;-71
2021/10/09 04:46:34;;;;;;;48.53;30.50;;;;;;;8.06;100.00;101292.19;5024991;28;20049;-65
2021/10/09 04:49:02;;;;;;;50.78;31.13;;;;;;;8.09;100.00;101301.88;5034789;28;20045;-70
2021/10/09 04:51:29;;;;;;;51.88;31.75;;;;;;;8.05;100.00;101301.09;5037844;28;20132;-67
2021/10/09 04:53:57;;;;;;;45.47;29.27;;;;;;;7.99;100.00;101291.53;5038146;28;20127;-69
2021/10/09 04:56:24;;;;;;;44.20;29.33;;;;;;;7.99;100.00;101294.19;5054362;28;20501;-68
2021/10/09 04:58:52;;;;;;;46.90;30.08;;;;;;;7.98;100.00;101295.13;5054403;28;20052;-70
2021/10/09 05:01:19;;;;;;;49.28;31.10;;;;;;;7.94;100.00;101290.81;5046801;28;20049;-67
2021/10/09 05:03:47;;;;;;;51.03;30.85;;;;;;;7.94;100.00;101296.13;5026362;28;20073;-68
2021/10/09 05:06:14;;;;;;;49.05;31.55;;;;;;;7.95;100.00;101292.56;5051708;28;20422;-66
2021/10/09 05:08:40;;;;;;;48.70;30.85;;;;;;;7.93;100.00;101297.06;5053815;28;20434;-71
2021/10/09 05:11:09;;;;;;;50.33;31.98;;;;;;;7.92;100.00;101295.31;5054064;28;20076;-69
2021/10/09 05:13:36;;;;;;;48.30;32.00;;;;;;;7.88;100.00;101296.31;5054389;28;20047;-69
2021/10/09 05:16:03;;;;;;;46.33;30.77;;;;;;;7.92;100.00;101292.66;5055398;28;20052;-72
2021/10/09 05:18:30;;;;;;;55.17;33.03;;;;;;;7.89;100.00;101298.06;5054146;28;20079;-70
2021/10/09 05:20:57;;;;;;;51.65;32.63;;;;;;;7.87;100.00;101291.94;5037464;28;20164;-68
2021/10/09 05:23:24;;;;;;;47.50;31.88;;;;;;;7.84;100.00;101292.88;5053905;28;20071;-68
2021/10/09 05:25:54;;;;;;;50.58;31.98;;;;;;;7.83;100.00;101298.25;5035012;28;20061;-71
2021/10/09 05:28:40;;;;;;;52.72;33.42;;;;;;;7.83;100.00;101312.41;5034088;28;20477;-66
2021/10/09 05:31:09;;;;;;;56.33;31.88;;;;;;;7.83;100.00;101304.44;5033904;28;20045;-71
2021/10/09 05:33:42;;;;;;;49.00;30.67;;;;;;;7.76;100.00;101305.56;5033986;28;20447;-69
2021/10/09 05:36:09;;;;;;;55.17;31.25;;;;;;;7.81;100.00;101300.09;5049217;28;20041;-69
2021/10/09 05:38:37;;;;;;;53.92;31.42;;;;;;;7.80;100.00;101306.31;5050686;28;20099;-69
2021/10/09 05:41:04;;;;;;;54.38;34.38;;;;;;;7.77;100.00;101301.09;5033667;28;20095;-69
2021/10/09 05:43:36;;;;;;;48.28;31.63;;;;;;;7.77;100.00;101303.75;5033799;28;20155;-67
2021/10/09 05:46:05;;;;;;;53.00;33.20;;;;;;;7.75;100.00;101307.31;5033775;28;20069;-67
2021/10/09 05:48:38;;;;;;;56.28;33.08;;;;;;;7.71;100.00;101307.47;5042064;28;20160;-69
2021/10/09 05:51:30;;;;;;;51.92;33.28;;;;;;;7.70;100.00;101322.56;5017979;28;20100;-70
2021/10/09 06:02:19;;;;;;;55.67;32.08;;;;;;;7.61;100.00;101333.44;5050905;28;20040;-70
2021/10/09 06:59:44;;;;;;;51.30;33.63;;;;;;;7.98;100.00;101366.03;5049339;28;20041;-69
2021/10/09 07:02:12;;;;;;;52.33;33.83;;;;;;;7.98;100.00;101366.03;5053002;28;20037;-73
2021/10/09 07:04:39;;;;;;;62.20;34.65;;;;;;;8.02;100.00;101365.88;5047711;28;20053;-71
2021/10/09 07:07:09;;;;;;;55.47;34.70;;;;;;;8.01;100.00;101363.28;5053240;28;20066;-69
2021/10/09 07:09:50;;;;;;;59.60;34.92;;;;;;;8.07;100.00;101368.38;5051344;28;20052;-68
2021/10/09 07:12:20;;;;;;;58.25;35.47;;;;;;;8.09;100.00;101360.38;5055322;28;20055;-70
2021/10/09 07:14:47;;;;;;;51.13;34.25;;;;;;;8.17;100.00;101363.66;5054005;28;20045;-69
2021/10/09 07:17:15;;;;;;;60.92;37.40;;;;;;;8.20;100.00;101363.56;5052215;28;20438;-70
2021/10/09 07:19:41;;;;;;;53.70;34.10;;;;;;;8.29;100.00;101368.59;5056825;28;20092;-72
2021/10/09 07:22:09;;;;;;;57.10;35.38;;;;;;;8.36;100.00;101368.41;5043841;28;20454;-72
2021/10/09 07:24:57;;;;;;;57.17;35.50;;;;;;;8.37;100.00;101370.13;5057108;28;20068;-71
2021/10/09 07:27:24;;;;;;;57.35;35.45;;;;;;;8.41;100.00;101369.97;5044470;28;20057;-70
2021/10/09 07:29:51;;;;;;;61.00;34.67;;;;;;;8.42;100.00;101371.75;5048699;28;20102;-72
2021/10/09 07:32:18;;;;;;;57.90;35.25;;;;;;;8.49;100.00;101368.88;5044308;28;20365;-71
2021/10/09 07:34:45;;;;;;;60.15;36.47;;;;;;;8.56;100.00;101376.63;5054692;28;20041;-70
2021/10/09 07:37:15;;;;;;;61.63;37.42;;;;;;;8.62;100.00;101369.38;5048045;28;20481;-71
2021/10/09 07:39:44;;;;;;;56.60;36.65;;;;;;;8.72;100.00;101378.75;5052540;28;20045;-70
2021/10/09 07:42:11;;;;;;;61.88;37.47;;;;;;;8.78;100.00;101386.53;5054050;28;20041;-70
2021/10/09 07:44:38;;;;;;;59.38;36.40;;;;;;;8.87;100.00;101374.72;5055175;28;20068;-70
2021/10/09 07:47:06;;;;;;;58.95;37.38;;;;;;;8.92;100.00;101388.75;5054284;28;20331;-71
2021/10/09 07:49:33;;;;;;;60.00;38.35;;;;;;;9.01;100.00;101381.38;5056519;28;20086;-69
2021/10/09 07:52:00;;;;;;;63.40;38.60;;;;;;;9.08;100.00;101383.78;5052922;28;20048;-72
2021/10/09 07:54:27;;;;;;;60.25;37.13;;;;;;;9.16;100.00;101385.28;5054583;28;20037;-70
2021/10/09 07:56:53;;;;;;;63.92;38.42;;;;;;;9.22;100.00;101379.75;5054462;28;20049;-70
2021/10/09 07:59:20;;;;;;;57.53;37.20;;;;;;;9.33;100.00;101382.03;5047747;28;20045;-71
2021/10/09 08:01:47;;;;;;;60.55;36.85;;;;;;;9.40;100.00;101391.53;5054289;28;20037;-71
2021/10/09 08:04:16;;;;;;;70.40;37.63;;;;;;;9.46;100.00;101387.75;5046013;28;20049;-69
2021/10/09 08:06:43;;;;;;;58.50;35.30;;;;;;;9.51;100.00;101391.13;5046465;28;20033;-73
2021/10/09 08:09:11;;;;;;;61.38;35.63;;;;;;;9.63;100.00;101396.03;5049625;28;20389;-71
2021/10/09 08:11:39;;;;;;;55.30;34.88;;;;;;;9.70;100.00;101396.66;5047537;28;20132;-71
2021/10/09 08:14:06;;;;;;;57.95;34.63;;;;;;;9.83;100.00;101390.84;5034381;28;20435;-72
2021/10/09 08:16:35;;;;;;;56.25;33.85;;;;;;;9.88;100.00;101396.88;5053335;28;20079;-69
2021/10/09 08:19:03;;;;;;;53.60;34.28;;;;;;;9.96;100.00;101393.94;5053161;28;20110;-67
2021/10/09 08:21:34;;;;;;;57.03;34.92;;;;;;;10.02;99.83;101389.22;5053864;28;20052;-68
2021/10/09 08:40:14;;;;;;;48.85;31.48;;;;;;;10.52;95.24;101400.63;5050406;28;20045;-68
2021/10/09 08:42:42;;;;;;;52.25;31.02;;;;;;;10.60;95.53;101405.66;5051778;28;20055;-67
2021/10/09 08:45:11;;;;;;;59.17;31.30;;;;;;;10.67;94.45;101404.47;5055225;28;20036;-67
2021/10/09 08:47:38;;;;;;;50.15;32.80;;;;;;;10.71;94.08;101406.09;5050451;28;20320;-67
2021/10/09 08:50:08;;;;;;;54.33;31.63;;;;;;;10.83;92.84;101406.50;5047420;28;20511;-67
2021/10/09 08:52:36;;;;;;;50.65;29.65;;;;;;;10.89;93.57;101410.72;5052549;28;20057;-67
2021/10/09 08:55:22;;;;;;;53.63;31.50;;;;;;;11.02;91.89;101403.03;5052987;28;20053;-67
2021/10/09 08:57:50;;;;;;;47.47;29.27;;;;;;;11.11;92.34;101402.66;5055787;28;20072;-67
2021/10/09 09:00:48;;;;;;;48.47;30.52;;;;;;;11.23;91.60;101411.94;5055302;28;20040;-67
2021/10/09 09:03:19;;;;;;;54.95;30.90;;;;;;;11.26;91.38;101396.66;5054752;28;20033;-69
2021/10/09 09:05:58;;;;;;;50.58;29.92;;;;;;;11.40;92.40;101405.84;5054604;28;20040;-66
2021/10/09 09:08:55;;;;;;;51.08;28.85;;;;;;;11.50;91.54;101401.81;5024684;28;20068;-67
2021/10/09 09:40:17;;;;;;;39.30;25.85;;;;;;;12.75;82.71;101391.50;5053400;28;20063;-72
2021/10/09 09:42:50;;;;;;;44.45;23.58;;;;;;;12.93;84.12;101390.66;5053391;28;20049;-68
2021/10/09 09:45:21;;;;;;;37.60;24.27;;;;;;;12.90;83.49;101379.16;5050337;28;20045;-68
2021/10/09 09:47:49;;;;;;;40.72;23.50;;;;;;;12.99;83.30;101382.28;5037325;28;20049;-68
2021/10/09 09:50:16;;;;;;;33.53;21.73;;;;;;;13.18;82.12;101390.22;5034826;28;20427;-68
2021/10/09 09:52:44;;;;;;;31.40;21.83;;;;;;;13.27;82.11;101394.25;5033639;28;20054;-68
2021/10/09 09:55:16;;;;;;;40.30;23.25;;;;;;;13.35;79.92;101385.81;5034319;28;20037;-68
2021/10/09 09:58:01;;;;;;;38.83;21.60;;;;;;;13.51;81.04;101393.94;5054734;28;20338;-68
2021/10/09 10:00:32;;;;;;;34.15;21.00;;;;;;;13.63;78.50;101390.59;5054865;28;20053;-68
2021/10/09 10:03:02;;;;;;;36.75;19.92;;;;;;;13.64;78.72;101381.59;5053952;28;20047;-69
2021/10/09 10:05:29;;;;;;;31.80;20.15;;;;;;;13.85;79.77;101381.38;5054569;28;20049;-68
2021/10/09 10:07:56;;;;;;;39.55;21.58;;;;;;;13.98;77.31;101385.09;5053616;28;20053;-68
2021/10/09 10:10:23;;;;;;;38.08;20.70;;;;;;;14.08;78.39;101381.91;5056037;28;20424;-69
2021/10/09 10:12:55;;;;;;;33.70;20.08;;;;;;;14.15;76.00;101385.97;5058569;28;20478;-69
2021/10/09 10:15:27;;;;;;;33.22;19.77;;;;;;;14.21;74.93;101382.06;5058515;28;20430;-68
2021/10/09 10:17:54;;;;;;;30.77;19.58;;;;;;;14.28;74.08;101377.22;5058687;28;20045;-69
2021/10/09 10:20:23;;;;;;;39.63;18.90;;;;;;;14.35;74.49;101387.53;5058450;28;20053;-68
2021/10/09 10:22:54;;;;;;;38.00;21.17;;;;;;;14.31;73.71;101380.59;5058418;28;20076;-68
2021/10/09 10:25:21;;;;;;;30.05;19.48;;;;;;;14.35;75.05;101383.97;5055634;28;20040;-69
2021/10/09 10:28:03;;;;;;;30.80;17.95;;;;;;;14.52;72.81;101386.56;5038366;28;20045;-68
2021/10/09 10:30:33;;;;;;;34.63;17.80;;;;;;;14.65;71.32;101391.19;5040480;28;20041;-69
2021/10/09 10:33:00;;;;;;;31.40;17.48;;;;;;;14.73;71.53;101385.38;5039689;28;20049;-69
2021/10/09 10:35:30;;;;;;;28.40;17.30;;;;;;;14.93;73.61;101386.91;5043044;28;20042;-69
2021/10/09 10:38:09;;;;;;;28.00;18.63;;;;;;;15.07;71.47;101383.38;5038465;28;20051;-70
2021/10/09 10:40:49;;;;;;;31.20;19.83;;;;;;;15.24;70.66;101390.41;5036359;28;20557;-68
2021/10/09 10:46:01;;;;;;;34.15;19.67;;;;;;;15.29;70.85;101384.75;5036882;28;20289;-70
2021/10/09 10:48:46;;;;;;;34.13;18.67;;;;;;;15.42;69.49;101380.34;5035907;28;20049;-68
2021/10/09 10:51:37;;;;;;;27.70;17.77;;;;;;;15.55;70.76;101377.78;5044425;28;20380;-69
2021/10/09 10:56:56;;;;;;;30.90;18.67;;;;;;;15.82;71.45;101382.38;5052710;28;20055;-71
2021/10/09 10:59:55;;;;;;;31.13;19.83;;;;;;;16.02;69.49;101378.41;5051530;28;20049;-68
2021/10/09 11:02:38;;;;;;;33.20;18.50;;;;;;;16.19;70.30;101380.97;5047612;28;20041;-72
2021/10/09 11:05:13;;;;;;;30.73;19.45;;;;;;;16.33;68.93;101369.31;5052690;28;20064;-71
2021/10/09 11:07:45;;;;;;;29.92;18.35;;;;;;;16.43;68.53;101367.72;5052539;28;20044;-71
2021/10/09 11:10:13;;;;;;;33.70;19.33;;;;;;;16.42;68.13;101366.88;5053137;28;20041;-70
2021/10/09 11:12:46;;;;;;;33.03;19.50;;;;;;;16.48;68.54;101360.19;5053706;28;20051;-72
2021/10/09 11:15:26;;;;;;;38.50;19.73;;;;;;;16.51;67.17;101370.75;5054931;28;20037;-71
2021/10/09 11:17:56;;;;;;;35.80;19.90;;;;;;;16.50;66.57;101369.03;5053168;28;20408;-70
2021/10/09 11:20:28;;;;;;;31.25;19.58;;;;;;;16.60;67.61;101369.28;5051794;28;20341;-70
2021/10/09 11:22:59;;;;;;;26.38;18.30;;;;;;;16.45;65.93;101364.94;5050396;28;20044;-73
2021/10/09 11:25:34;;;;;;;29.60;16.00;;;;;;;16.39;64.96;101366.19;5053585;28;20052;-71
2021/10/09 11:28:04;;;;;;;27.92;17.25;;;;;;;16.55;66.34;101355.25;5052687;28;20389;-70
2021/10/09 11:30:33;;;;;;;34.70;18.15;;;;;;;16.59;65.57;101358.59;5054681;28;20231;-74
2021/10/09 11:33:00;;;;;;;25.77;16.67;;;;;;;16.82;65.69;101362.41;5054564;28;20104;-73
2021/10/09 11:35:39;;;;;;;27.75;14.32;;;;;;;16.78;61.17;101366.31;5051773;28;20040;-71
2021/10/09 11:38:22;;;;;;;35.60;15.70;;;;;;;16.80;61.88;101358.97;5054005;28;20051;-73
2021/10/09 11:40:59;;;;;;;25.17;15.10;;;;;;;16.87;62.30;101362.97;5053038;28;20095;-72
2021/10/09 11:43:54;;;;;;;24.92;14.77;;;;;;;16.89;62.76;101357.50;5055793;28;20483;-71
2021/10/09 11:46:43;;;;;;;22.77;14.95;;;;;;;16.97;61.55;101355.13;5066563;28;20037;-71
2021/10/09 11:55:22;;;;;;;27.65;12.80;;;;;;;17.23;60.74;101355.19;5054287;28;20318;-75
2021/10/09 11:57:50;;;;;;;23.08;13.55;;;;;;;17.35;60.13;101350.75;5053312;28;20461;-68
2021/10/09 12:00:29;;;;;;;21.23;12.98;;;;;;;17.40;58.98;101345.88;5054514;28;20045;-70
2021/10/09 12:02:58;;;;;;;25.58;13.30;;;;;;;17.47;60.82;101341.78;5050203;28;20032;-70
2021/10/09 12:05:32;;;;;;;17.83;12.23;;;;;;;17.51;58.59;101348.69;5052517;28;20116;-73
2021/10/09 12:08:17;;;;;;;26.50;12.70;;;;;;;17.67;58.13;101346.69;5053070;28;20044;-70
2021/10/09 12:11:22;;;;;;;20.30;11.88;;;;;;;17.71;58.12;101348.22;5054147;28;20052;-69
2021/10/09 12:13:58;;;;;;;18.08;11.40;;;;;;;17.68;57.54;101340.31;5054498;28;20037;-70
2021/10/09 12:16:43;;;;;;;24.17;12.60;;;;;;;17.63;57.76;101327.16;5054463;28;20099;-68
2021/10/09 12:19:11;;;;;;;19.40;11.70;;;;;;;17.75;57.75;101331.69;5051255;28;20131;-68
2021/10/09 12:21:51;;;;;;;18.95;11.23;;;;;;;17.88;56.85;101339.72;5051837;28;20481;-69
2021/10/09 12:24:21;;;;;;;18.10;11.00;;;;;;;17.85;56.43;101318.38;5050081;28;20040;-69
2021/10/09 12:27:10;;;;;;;29.02;11.13;;;;;;;17.90;57.32;101327.00;5052438;28;20453;-72
2021/10/09 12:29:54;;;;;;;23.60;12.45;;;;;;;17.92;55.86;101324.16;5052670;28;20033;-69
2021/10/09 12:32:21;;;;;;;19.50;11.52;;;;;;;17.87;56.67;101319.09;5052618;28;20056;-68
2021/10/09 12:35:09;;;;;;;23.75;10.48;;;;;;;17.94;56.37;101310.56;5051820;28;20053;-69
2021/10/09 12:37:37;;;;;;;21.67;11.35;;;;;;;17.56;56.71;101313.25;5049080;28;20041;-74
2021/10/09 12:40:06;;;;;;;22.67;11.85;;;;;;;17.41;57.68;101314.34;5049851;28;20093;-71
2021/10/09 12:42:32;;;;;;;20.33;10.63;;;;;;;17.47;55.92;101312.09;5052709;28;20430;-68
2021/10/09 12:45:04;;;;;;;15.23;10.52;;;;;;;17.43;55.82;101313.25;5052003;28;20044;-70
2021/10/09 12:47:50;;;;;;;;;;;;;;;17.23;54.13;101310.16;5052317;28;20728;-69
2021/10/09 12:50:18;;;;;;;14.93;9.65;;;;;;;17.21;54.78;101304.00;5052669;28;19921;-68
2021/10/09 12:52:46;;;;;;;19.55;9.38;;;;;;;17.19;55.58;101299.69;5069544;28;20435;-74
2021/10/09 12:55:18;;;;;;;20.33;10.63;;;;;;;17.15;56.07;101299.06;5052651;28;20371;-69
2021/10/09 12:57:50;;;;;;;24.85;10.13;;;;;;;17.05;56.72;101300.69;5053273;28;20045;-73
2021/10/09 13:00:18;;;;;;;16.42;10.18;;;;;;;16.97;55.41;101293.97;5053732;28;20044;-74
2021/10/09 13:02:45;;;;;;;16.17;10.02;;;;;;;16.69;55.23;101298.56;5049183;28;20084;-75
2021/10/09 13:05:13;;;;;;;18.02;9.60;;;;;;;16.49;55.96;101288.28;5052471;28;20485;-75
2021/10/09 13:07:40;;;;;;;18.98;11.00;;;;;;;16.35;55.84;101295.47;5066690;28;20047;-72
2021/10/09 13:10:07;;;;;;;21.55;9.45;;;;;;;16.29;58.37;101288.69;5051837;28;20095;-73
2021/10/09 13:12:34;;;;;;;20.23;10.35;;;;;;;16.22;58.03;101278.41;5051841;28;20068;-75
2021/10/09 13:15:01;;;;;;;19.95;10.30;;;;;;;16.19;59.33;101284.00;5051366;28;20037;-74
2021/10/09 13:17:28;;;;;;;25.45;10.75;;;;;;;16.13;60.79;101275.38;5053871;28;20063;-76
2021/10/09 13:19:55;;;;;;;21.35;11.70;;;;;;;16.10;59.29;101272.91;5052914;28;20041;-69
2021/10/09 13:22:22;;;;;;;16.80;11.10;;;;;;;16.17;60.35;101277.88;5051441;28;20438;-69
2021/10/09 13:24:49;;;;;;;17.38;9.68;;;;;;;16.09;61.25;101287.34;5051213;28;20434;-69
2021/10/09 13:27:16;;;;;;;18.20;10.05;;;;;;;16.04;58.83;101275.13;5049791;28;20114;-71
2021/10/09 13:29:43;;;;;;;16.15;10.02;;;;;;;15.99;60.11;101272.75;5050040;28;20480;-72
2021/10/09 13:32:10;;;;;;;19.48;10.07;;;;;;;15.94;61.05;101274.88;5052505;28;20037;-71
2021/10/09 13:34:37;;;;;;;15.70;9.57;;;;;;;15.94;61.19;101269.47;5050469;28;20036;-72
2021/10/09 13:37:05;;;;;;;16.80;9.55;;;;;;;15.98;61.03;101273.72;5052165;28;20044;-75